createdAt,value
2018-12-31T00:00:03.209Z,3.60
2018-12-31T00:01:03.200Z,3.20
2018-12-31T00:02:03.208Z,3.30
2018-12-31T00:03:03.193Z,3.30
2018-12-31T00:04:03.239Z,3.70
2018-12-31T00:05:03.949Z,3.40
2018-12-31T00:06:03.192Z,3.30
2018-12-31T00:07:03.386Z,3.30
2018-12-31T00:08:03.124Z,3.50
2018-12-31T00:09:03.118Z,3.40
2018-12-31T00:10:03.105Z,3.20
2018-12-31T00:11:03.121Z,3.10
2018-12-31T00:12:03.082Z,3.40
2018-12-31T00:13:03.105Z,3.40
2018-12-31T00:14:03.067Z,3.50
2018-12-31T00:15:03.092Z,3.40
2018-12-31T00:16:03.038Z,3.20
2018-12-31T00:17:03.072Z,3.60
2018-12-31T00:18:03.118Z,3.10
2018-12-31T00:19:03.006Z,3.20
2018-12-31T00:20:02.999Z,3.10
2018-12-31T00:21:02.984Z,3.10
2018-12-31T00:22:02.993Z,3.20
2018-12-31T00:23:02.970Z,3.50
2018-12-31T00:24:02.952Z,3.40
2018-12-31T00:25:02.950Z,3.20
2018-12-31T00:26:02.936Z,3.10
2018-12-31T00:27:02.940Z,3.10
2018-12-31T00:28:02.912Z,3.10
2018-12-31T00:29:02.912Z,3.20
2018-12-31T00:30:02.887Z,3.30
2018-12-31T00:31:02.877Z,3.20
2018-12-31T00:32:02.989Z,3.40
2018-12-31T00:33:02.913Z,3.10
2018-12-31T00:34:02.856Z,3.20
2018-12-31T00:35:02.835Z,3.30
2018-12-31T00:36:02.823Z,3.30
2018-12-31T00:37:02.833Z,2.80
2018-12-31T00:38:02.937Z,3.00
2018-12-31T00:39:02.791Z,3.00
2018-12-31T00:40:02.787Z,3.10
2018-12-31T00:41:02.772Z,3.00
2018-12-31T00:42:02.782Z,3.30
2018-12-31T00:43:02.758Z,2.90
2018-12-31T00:44:02.739Z,3.00
2018-12-31T00:45:02.728Z,2.80
2018-12-31T00:46:02.718Z,2.90
2018-12-31T00:47:02.726Z,2.90
2018-12-31T00:48:02.697Z,2.90
2018-12-31T00:49:02.696Z,2.80
2018-12-31T00:50:02.676Z,2.80
2018-12-31T00:51:02.663Z,2.80
2018-12-31T00:52:02.668Z,3.10
2018-12-31T00:53:02.645Z,2.70
2018-12-31T00:54:02.639Z,2.90
2018-12-31T00:55:02.628Z,3.00
2018-12-31T00:56:02.612Z,2.90
2018-12-31T00:57:02.619Z,2.90
2018-12-31T00:58:02.590Z,3.10
2018-12-31T00:59:02.581Z,2.90
2018-12-31T01:00:02.569Z,2.80
2018-12-31T01:01:02.568Z,2.70
2018-12-31T01:02:02.566Z,2.70
2018-12-31T01:03:02.548Z,2.60
2018-12-31T01:04:02.524Z,3.00
2018-12-31T01:05:02.512Z,2.90
2018-12-31T01:06:02.503Z,2.80
2018-12-31T01:07:02.512Z,2.70
2018-12-31T01:08:02.482Z,2.80
2018-12-31T01:09:02.474Z,2.60
2018-12-31T01:10:02.458Z,2.80
2018-12-31T01:11:02.447Z,2.70
2018-12-31T01:12:02.456Z,2.60
2018-12-31T01:13:02.429Z,2.80
2018-12-31T01:14:02.417Z,3.00
2018-12-31T01:15:02.405Z,2.70
2018-12-31T01:16:02.396Z,2.90
2018-12-31T01:17:02.414Z,2.90
2018-12-31T01:18:02.378Z,2.80
2018-12-31T01:19:02.362Z,2.60
2018-12-31T01:20:02.354Z,2.70
2018-12-31T01:21:02.342Z,2.40
2018-12-31T01:22:02.333Z,2.80
2018-12-31T01:23:02.344Z,2.60
2018-12-31T01:24:02.312Z,2.60
2018-12-31T01:25:02.301Z,2.70
2018-12-31T01:26:02.287Z,2.60
2018-12-31T01:27:02.280Z,2.70
2018-12-31T01:28:02.285Z,3.00
2018-12-31T01:29:02.257Z,2.50
2018-12-31T01:30:02.246Z,2.50
2018-12-31T01:31:02.238Z,2.70
2018-12-31T01:32:02.224Z,2.60
2018-12-31T01:33:02.236Z,2.60
2018-12-31T01:34:02.205Z,2.60
2018-12-31T01:35:02.190Z,2.50
2018-12-31T01:36:02.182Z,2.70
2018-12-31T01:37:02.179Z,2.40
2018-12-31T01:38:02.187Z,2.70
2018-12-31T01:39:02.148Z,2.80
2018-12-31T01:40:02.142Z,2.60
2018-12-31T01:41:02.129Z,2.40
2018-12-31T01:42:02.116Z,2.40
2018-12-31T01:43:02.109Z,2.40
2018-12-31T01:44:02.113Z,2.30
2018-12-31T01:45:02.084Z,2.60
2018-12-31T01:46:02.082Z,2.40
2018-12-31T01:47:02.063Z,2.70
2018-12-31T01:48:02.051Z,2.60
2018-12-31T01:49:02.060Z,2.70
2018-12-31T01:50:02.033Z,2.50
2018-12-31T01:51:02.023Z,2.30
2018-12-31T01:52:02.012Z,2.30
2018-12-31T01:53:01.999Z,2.50
2018-12-31T01:54:02.010Z,3.00
2018-12-31T01:55:01.979Z,2.70
2018-12-31T01:56:01.967Z,2.50
2018-12-31T01:57:01.960Z,2.60
2018-12-31T01:58:01.943Z,2.50
2018-12-31T01:59:01.953Z,2.40
2018-12-31T02:00:01.927Z,2.60
2018-12-31T02:01:01.914Z,2.50
2018-12-31T02:02:01.901Z,2.40
2018-12-31T02:03:01.893Z,2.50
2018-12-31T02:04:01.903Z,2.50
2018-12-31T02:05:01.872Z,2.30
2018-12-31T02:06:01.858Z,2.50
2018-12-31T02:07:01.849Z,2.50
2018-12-31T02:08:01.839Z,2.70
2018-12-31T02:09:01.828Z,2.40
2018-12-31T02:10:01.838Z,2.50
2018-12-31T02:11:01.806Z,2.20
2018-12-31T02:12:01.796Z,2.60
2018-12-31T02:13:01.788Z,2.40
2018-12-31T02:14:01.778Z,2.30
2018-12-31T02:15:01.783Z,2.10
2018-12-31T02:16:01.751Z,2.30
2018-12-31T02:17:01.743Z,2.40
2018-12-31T02:18:01.729Z,2.30
2018-12-31T02:19:01.722Z,2.20
2018-12-31T02:20:01.731Z,2.40
2018-12-31T02:21:01.698Z,2.50
2018-12-31T02:22:01.688Z,2.40
2018-12-31T02:23:01.681Z,2.40
2018-12-31T02:24:01.667Z,2.50
2018-12-31T02:25:01.658Z,2.40
2018-12-31T02:26:01.663Z,2.30
2018-12-31T02:27:01.637Z,2.10
2018-12-31T02:28:01.623Z,2.20
2018-12-31T02:29:01.613Z,2.30
2018-12-31T02:30:01.630Z,2.40
2018-12-31T02:31:01.597Z,2.30
2018-12-31T02:32:01.583Z,2.10
2018-12-31T02:33:01.568Z,2.40
2018-12-31T02:34:01.570Z,2.20
2018-12-31T02:35:01.559Z,2.30
2018-12-31T02:36:01.560Z,2.20
2018-12-31T02:37:01.531Z,2.40
2018-12-31T02:38:01.534Z,2.10
2018-12-31T02:39:01.506Z,1.90
2018-12-31T02:40:01.516Z,2.20
2018-12-31T02:41:01.503Z,2.10
2018-12-31T02:42:01.491Z,2.30
2018-12-31T02:43:01.465Z,2.10
2018-12-31T02:44:01.451Z,2.10
2018-12-31T02:45:01.447Z,2.00
2018-12-31T02:46:01.451Z,2.10
2018-12-31T02:47:01.418Z,2.10
2018-12-31T02:48:01.408Z,2.10
2018-12-31T02:49:01.406Z,2.10
2018-12-31T02:50:01.387Z,2.20
2018-12-31T02:51:01.401Z,2.10
2018-12-31T02:52:01.367Z,2.10
2018-12-31T02:53:01.359Z,2.10
2018-12-31T02:54:01.350Z,2.00
2018-12-31T02:55:01.337Z,2.30
2018-12-31T02:56:01.326Z,2.20
2018-12-31T02:57:01.356Z,2.00
2018-12-31T02:58:01.302Z,2.10
2018-12-31T02:59:01.292Z,2.10
2018-12-31T03:00:01.293Z,2.00
2018-12-31T03:01:01.277Z,2.10
2018-12-31T03:02:01.298Z,1.80
2018-12-31T03:03:01.250Z,2.60
2018-12-31T03:04:01.240Z,2.00
2018-12-31T03:05:01.233Z,2.00
2018-12-31T03:06:01.218Z,2.00
2018-12-31T03:07:01.804Z,2.10
2018-12-31T03:08:01.200Z,2.00
2018-12-31T03:09:01.188Z,2.10
2018-12-31T03:10:01.174Z,2.00
2018-12-31T03:11:01.175Z,2.00
2018-12-31T03:12:01.204Z,2.10
2018-12-31T03:13:01.145Z,2.00
2018-12-31T03:14:01.144Z,2.00
2018-12-31T03:15:01.129Z,1.80
2018-12-31T03:16:01.115Z,2.00
2018-12-31T03:17:01.102Z,2.00
2018-12-31T03:18:01.807Z,2.10
2018-12-31T03:19:01.083Z,2.00
2018-12-31T03:20:01.071Z,1.90
2018-12-31T03:21:01.061Z,1.90
2018-12-31T03:22:01.051Z,2.00
2018-12-31T03:23:01.058Z,2.00
2018-12-31T03:24:01.027Z,2.00
2018-12-31T03:25:01.018Z,2.00
2018-12-31T03:26:01.007Z,2.00
2018-12-31T03:27:00.995Z,2.00
2018-12-31T03:28:00.983Z,2.00
2018-12-31T03:29:00.995Z,2.10
2018-12-31T03:30:00.965Z,2.20
2018-12-31T03:31:00.955Z,2.00
2018-12-31T03:32:00.968Z,2.10
2018-12-31T03:33:00.932Z,2.10
2018-12-31T03:34:00.956Z,2.00
2018-12-31T03:35:00.910Z,2.00
2018-12-31T03:36:00.903Z,1.90
2018-12-31T03:37:00.888Z,2.10
2018-12-31T03:38:00.883Z,1.90
2018-12-31T03:39:00.888Z,2.00
2018-12-31T03:40:00.872Z,2.10
2018-12-31T03:41:00.849Z,1.80
2018-12-31T03:42:00.836Z,1.90
2018-12-31T03:43:00.828Z,1.80
2018-12-31T03:44:00.831Z,1.90
2018-12-31T03:45:00.806Z,1.70
2018-12-31T03:46:00.795Z,1.90
2018-12-31T03:47:00.782Z,2.00
2018-12-31T03:48:00.777Z,2.00
2018-12-31T03:49:00.783Z,1.80
2018-12-31T03:50:00.751Z,2.20
2018-12-31T03:51:00.739Z,1.90
2018-12-31T03:52:00.730Z,1.80
2018-12-31T03:53:00.719Z,2.10
2018-12-31T03:54:00.728Z,1.90
2018-12-31T03:55:00.757Z,2.00
2018-12-31T03:56:00.689Z,2.00
2018-12-31T03:57:00.680Z,1.80
2018-12-31T03:58:00.668Z,1.90
2018-12-31T03:59:00.672Z,1.80
2018-12-31T04:00:00.647Z,1.70
2018-12-31T04:01:00.651Z,2.00
2018-12-31T04:02:00.629Z,1.80
2018-12-31T04:03:00.612Z,2.10
2018-12-31T04:04:00.624Z,1.80
2018-12-31T04:05:00.599Z,2.20
2018-12-31T04:06:00.585Z,1.70
2018-12-31T04:07:00.574Z,2.00
2018-12-31T04:08:00.565Z,1.90
2018-12-31T04:09:00.570Z,1.70
2018-12-31T04:10:00.539Z,2.00
2018-12-31T04:11:00.532Z,1.90
2018-12-31T04:12:00.530Z,1.70
2018-12-31T04:13:00.507Z,1.80
2018-12-31T04:14:00.515Z,2.00
2018-12-31T04:15:00.506Z,1.80
2018-12-31T04:16:00.474Z,1.90
2018-12-31T04:17:00.468Z,1.90
2018-12-31T04:18:00.454Z,1.70
2018-12-31T04:19:00.476Z,1.90
2018-12-31T04:20:00.432Z,2.10
2018-12-31T04:21:00.423Z,1.90
2018-12-31T04:22:00.415Z,2.10
2018-12-31T04:23:00.401Z,1.90
2018-12-31T04:24:00.389Z,1.90
2018-12-31T04:25:00.399Z,1.90
2018-12-31T04:26:00.368Z,2.00
2018-12-31T04:27:00.357Z,1.90
2018-12-31T04:28:00.350Z,1.90
2018-12-31T04:29:00.338Z,1.80
2018-12-31T04:30:00.347Z,2.00
2018-12-31T04:31:00.316Z,1.80
2018-12-31T04:32:00.305Z,2.10
2018-12-31T04:33:00.293Z,2.10
2018-12-31T04:34:00.282Z,1.90
2018-12-31T04:35:00.298Z,1.80
2018-12-31T04:36:00.261Z,1.90
2018-12-31T04:37:00.252Z,1.90
2018-12-31T04:38:00.247Z,1.90
2018-12-31T04:39:00.231Z,2.00
2018-12-31T04:40:00.314Z,2.00
2018-12-31T04:41:00.208Z,2.00
2018-12-31T04:42:00.202Z,2.10
2018-12-31T04:43:00.197Z,2.00
2018-12-31T04:44:00.176Z,2.00
2018-12-31T04:45:00.320Z,2.00
2018-12-31T04:46:00.184Z,2.20
2018-12-31T04:47:00.348Z,1.90
2018-12-31T04:48:00.139Z,2.10
2018-12-31T04:49:00.128Z,2.00
2018-12-31T04:50:00.269Z,2.10
2018-12-31T04:51:00.121Z,2.30
2018-12-31T04:52:00.097Z,2.20
2018-12-31T04:53:00.086Z,2.00
2018-12-31T04:54:00.070Z,2.10
2018-12-31T04:55:00.127Z,2.40
2018-12-31T04:56:00.073Z,2.20
2018-12-31T04:57:00.038Z,2.30
2018-12-31T04:58:00.028Z,2.40
2018-12-31T04:59:00.018Z,2.30
2018-12-31T05:00:00.008Z,2.00
2018-12-31T05:01:00.012Z,2.30
2018-12-31T05:01:59.986Z,1.80
2018-12-31T05:02:59.972Z,2.10
2018-12-31T05:03:59.963Z,2.20
2018-12-31T05:04:59.962Z,2.10
2018-12-31T05:05:59.962Z,1.90
2018-12-31T05:06:59.934Z,1.90
2018-12-31T05:07:59.922Z,2.00
2018-12-31T05:08:59.916Z,2.00
2018-12-31T05:09:59.921Z,2.10
2018-12-31T05:10:59.905Z,2.10
2018-12-31T05:11:59.879Z,2.00
2018-12-31T05:12:59.887Z,2.20
2018-12-31T05:13:59.863Z,2.40
2018-12-31T05:14:59.849Z,2.20
2018-12-31T05:15:59.859Z,2.00
2018-12-31T05:16:59.823Z,2.00
2018-12-31T05:17:59.816Z,1.90
2018-12-31T05:18:59.808Z,2.10
2018-12-31T05:19:59.792Z,2.00
2018-12-31T05:20:59.802Z,2.00
2018-12-31T05:21:59.777Z,2.00
2018-12-31T05:22:59.762Z,2.10
2018-12-31T05:23:59.747Z,2.10
2018-12-31T05:24:59.745Z,1.80
2018-12-31T05:25:59.758Z,2.10
2018-12-31T05:26:59.717Z,2.00
2018-12-31T05:27:59.706Z,2.00
2018-12-31T05:28:59.697Z,2.00
2018-12-31T05:29:59.686Z,2.00
2018-12-31T05:30:59.697Z,2.10
2018-12-31T05:31:59.668Z,2.10
2018-12-31T05:32:59.661Z,2.10
2018-12-31T05:33:59.650Z,2.00
2018-12-31T05:34:59.632Z,2.00
2018-12-31T05:35:59.668Z,2.10
2018-12-31T05:36:59.616Z,2.10
2018-12-31T05:37:59.598Z,2.30
2018-12-31T05:38:59.592Z,2.20
2018-12-31T05:39:59.589Z,2.30
2018-12-31T05:40:59.568Z,2.20
2018-12-31T05:41:59.576Z,2.20
2018-12-31T05:42:59.555Z,2.10
2018-12-31T05:43:59.538Z,2.40
2018-12-31T05:44:59.529Z,2.20
2018-12-31T05:45:59.516Z,2.10
2018-12-31T05:46:59.519Z,2.20
2018-12-31T05:47:59.495Z,2.00
2018-12-31T05:48:59.494Z,2.00
2018-12-31T05:49:59.470Z,2.20
2018-12-31T05:50:59.471Z,2.30
2018-12-31T05:51:59.473Z,2.20
2018-12-31T05:52:59.445Z,2.30
2018-12-31T05:53:59.428Z,2.40
2018-12-31T05:54:59.423Z,2.10
2018-12-31T05:55:59.407Z,2.20
2018-12-31T05:56:59.408Z,2.10
2018-12-31T05:57:59.870Z,2.00
2018-12-31T05:58:59.378Z,2.10
2018-12-31T05:59:59.370Z,2.30
2018-12-31T06:00:59.358Z,2.30
2018-12-31T06:01:59.343Z,2.40
2018-12-31T06:02:59.351Z,2.40
2018-12-31T06:03:59.326Z,2.30
2018-12-31T06:04:59.309Z,2.40
2018-12-31T06:05:59.302Z,2.30
2018-12-31T06:06:59.289Z,2.30
2018-12-31T06:07:59.301Z,2.50
2018-12-31T06:08:59.266Z,2.60
2018-12-31T06:09:59.260Z,2.20
2018-12-31T06:10:59.247Z,2.20
2018-12-31T06:11:59.235Z,2.30
2018-12-31T06:12:59.243Z,2.30
2018-12-31T06:13:59.219Z,2.20
2018-12-31T06:14:59.205Z,2.40
2018-12-31T06:15:59.194Z,2.40
2018-12-31T06:16:59.183Z,2.40
2018-12-31T06:17:59.191Z,2.40
2018-12-31T06:18:59.160Z,2.70
2018-12-31T06:19:59.151Z,2.70
2018-12-31T06:20:59.141Z,2.40
2018-12-31T06:21:59.129Z,2.60
2018-12-31T06:22:59.140Z,2.70
2018-12-31T06:23:59.108Z,2.70
2018-12-31T06:24:59.098Z,2.60
2018-12-31T06:25:59.086Z,2.50
2018-12-31T06:26:59.079Z,2.70
2018-12-31T06:27:59.101Z,2.20
2018-12-31T06:28:59.055Z,2.40
2018-12-31T06:29:59.044Z,2.20
2018-12-31T06:30:59.035Z,2.40
2018-12-31T06:31:59.022Z,2.30
2018-12-31T06:32:59.012Z,2.40
2018-12-31T06:33:59.020Z,2.30
2018-12-31T06:34:58.994Z,2.20
2018-12-31T06:35:58.977Z,2.50
2018-12-31T06:36:58.969Z,2.10
2018-12-31T06:37:58.957Z,2.20
2018-12-31T06:38:59.875Z,2.20
2018-12-31T06:39:58.935Z,2.10
2018-12-31T06:40:58.926Z,2.20
2018-12-31T06:41:58.913Z,2.20
2018-12-31T06:42:58.904Z,2.10
2018-12-31T06:43:58.914Z,2.30
2018-12-31T06:44:58.885Z,2.30
2018-12-31T06:45:58.873Z,2.40
2018-12-31T06:46:58.860Z,2.50
2018-12-31T06:47:58.853Z,2.30
2018-12-31T06:49:00.378Z,2.40
2018-12-31T06:49:58.831Z,2.30
2018-12-31T06:50:58.819Z,2.20
2018-12-31T06:51:58.807Z,2.20
2018-12-31T06:52:58.796Z,2.10
2018-12-31T06:53:58.804Z,2.30
2018-12-31T06:54:58.775Z,2.20
2018-12-31T06:55:58.768Z,2.30
2018-12-31T06:56:58.754Z,2.40
2018-12-31T06:57:58.741Z,2.40
2018-12-31T06:58:58.750Z,2.40
2018-12-31T06:59:58.723Z,2.00
2018-12-31T07:00:58.786Z,2.20
2018-12-31T07:01:58.700Z,2.20
2018-12-31T07:02:58.687Z,2.20
2018-12-31T07:03:58.700Z,2.10
2018-12-31T07:04:58.667Z,2.20
2018-12-31T07:05:58.656Z,2.20
2018-12-31T07:06:58.650Z,2.30
2018-12-31T07:07:58.643Z,2.30
2018-12-31T07:08:58.651Z,2.30
2018-12-31T07:09:58.615Z,2.50
2018-12-31T07:10:58.602Z,2.20
2018-12-31T07:11:58.593Z,2.30
2018-12-31T07:12:58.587Z,2.00
2018-12-31T07:13:58.592Z,2.60
2018-12-31T07:14:58.560Z,2.20
2018-12-31T07:15:58.550Z,2.40
2018-12-31T07:16:58.540Z,2.50
2018-12-31T07:17:58.529Z,2.10
2018-12-31T07:18:58.563Z,2.30
2018-12-31T07:19:58.508Z,2.30
2018-12-31T07:20:58.497Z,2.30
2018-12-31T07:21:58.484Z,2.30
2018-12-31T07:22:58.478Z,2.40
2018-12-31T07:23:58.467Z,2.30
2018-12-31T07:24:58.474Z,2.40
2018-12-31T07:25:58.445Z,2.30
2018-12-31T07:26:58.432Z,2.40
2018-12-31T07:27:58.423Z,2.40
2018-12-31T07:28:58.412Z,2.20
2018-12-31T07:29:58.419Z,2.30
2018-12-31T07:30:58.395Z,2.50
2018-12-31T07:31:58.379Z,2.40
2018-12-31T07:32:58.367Z,2.40
2018-12-31T07:33:58.355Z,2.40
2018-12-31T07:34:58.367Z,2.50
2018-12-31T07:35:58.337Z,2.50
2018-12-31T07:36:58.329Z,2.60
2018-12-31T07:37:58.317Z,2.40
2018-12-31T07:38:58.302Z,2.60
2018-12-31T07:39:58.314Z,2.60
2018-12-31T07:40:58.280Z,2.80
2018-12-31T07:41:58.273Z,2.70
2018-12-31T07:42:58.263Z,2.90
2018-12-31T07:43:58.254Z,2.70
2018-12-31T07:44:58.257Z,2.70
2018-12-31T07:45:58.229Z,2.90
2018-12-31T07:46:58.218Z,3.00
2018-12-31T07:47:58.211Z,2.90
2018-12-31T07:48:58.196Z,3.10
2018-12-31T07:49:58.208Z,3.00
2018-12-31T07:50:58.176Z,3.20
2018-12-31T07:51:58.164Z,3.40
2018-12-31T07:52:58.156Z,3.30
2018-12-31T07:53:58.143Z,3.50
2018-12-31T07:54:58.160Z,3.40
2018-12-31T07:55:58.122Z,3.40
2018-12-31T07:56:58.111Z,4.00
2018-12-31T07:57:58.099Z,3.40
2018-12-31T07:58:58.090Z,3.30
2018-12-31T07:59:58.078Z,3.80
2018-12-31T08:00:58.084Z,3.30
2018-12-31T08:01:58.057Z,3.70
2018-12-31T08:02:58.046Z,3.20
2018-12-31T08:03:58.034Z,3.20
2018-12-31T08:04:58.026Z,3.40
2018-12-31T08:05:58.032Z,3.00
2018-12-31T08:06:58.001Z,3.10
2018-12-31T08:07:57.992Z,3.10
2018-12-31T08:08:57.982Z,3.10
2018-12-31T08:09:57.973Z,3.10
2018-12-31T08:10:57.978Z,3.30
2018-12-31T08:11:57.949Z,2.90
2018-12-31T08:12:57.942Z,3.00
2018-12-31T08:13:57.928Z,3.20
2018-12-31T08:14:57.920Z,3.10
2018-12-31T08:15:57.925Z,3.20
2018-12-31T08:16:57.895Z,3.20
2018-12-31T08:17:57.887Z,3.00
2018-12-31T08:18:57.874Z,2.90
2018-12-31T08:19:57.880Z,2.90
2018-12-31T08:20:57.878Z,3.20
2018-12-31T08:21:57.850Z,3.30
2018-12-31T08:22:57.845Z,3.10
2018-12-31T08:23:57.820Z,3.00
2018-12-31T08:24:57.814Z,2.90
2018-12-31T08:25:57.802Z,3.10
2018-12-31T08:26:57.809Z,3.40
2018-12-31T08:27:57.783Z,3.30
2018-12-31T08:28:57.769Z,3.50
2018-12-31T08:29:57.758Z,3.30
2018-12-31T08:30:57.747Z,3.00
2018-12-31T08:31:57.753Z,3.30
2018-12-31T08:32:57.728Z,2.90
2018-12-31T08:33:57.720Z,3.00
2018-12-31T08:34:57.704Z,3.20
2018-12-31T08:35:57.695Z,3.20
2018-12-31T08:36:57.704Z,3.30
2018-12-31T08:37:57.673Z,2.90
2018-12-31T08:38:57.661Z,3.10
2018-12-31T08:39:57.650Z,3.20
2018-12-31T08:40:57.641Z,3.60
2018-12-31T08:41:57.646Z,3.20
2018-12-31T08:42:57.619Z,3.30
2018-12-31T08:43:57.611Z,3.30
2018-12-31T08:44:57.598Z,3.30
2018-12-31T08:45:57.589Z,3.10
2018-12-31T08:46:57.592Z,3.40
2018-12-31T08:47:57.569Z,3.30
2018-12-31T08:48:57.569Z,3.40
2018-12-31T08:49:57.546Z,3.20
2018-12-31T08:50:57.533Z,3.20
2018-12-31T08:51:57.547Z,3.20
2018-12-31T08:52:57.512Z,3.20
2018-12-31T08:53:57.499Z,3.60
2018-12-31T08:54:57.495Z,3.20
2018-12-31T08:55:57.480Z,3.40
2018-12-31T08:56:57.470Z,3.40
2018-12-31T08:57:57.483Z,3.30
2018-12-31T08:58:57.446Z,3.40
2018-12-31T08:59:57.444Z,3.40
2018-12-31T09:00:57.432Z,3.40
2018-12-31T09:01:57.415Z,3.20
2018-12-31T09:02:57.426Z,3.20
2018-12-31T09:03:57.400Z,3.30
2018-12-31T09:04:57.382Z,3.30
2018-12-31T09:05:57.378Z,3.30
2018-12-31T09:06:57.361Z,3.40
2018-12-31T09:07:57.370Z,3.50
2018-12-31T09:08:57.342Z,3.80
2018-12-31T09:09:57.334Z,3.20
2018-12-31T09:10:57.332Z,3.70
2018-12-31T09:11:57.311Z,3.70
2018-12-31T09:12:57.319Z,3.50
2018-12-31T09:13:57.292Z,3.70
2018-12-31T09:14:57.280Z,3.40
2018-12-31T09:15:57.311Z,3.70
2018-12-31T09:16:57.256Z,3.70
2018-12-31T09:17:57.310Z,4.10
2018-12-31T09:18:57.235Z,4.00
2018-12-31T09:19:57.245Z,3.70
2018-12-31T09:20:57.214Z,4.00
2018-12-31T09:21:57.204Z,3.70
2018-12-31T09:22:57.196Z,4.10
2018-12-31T09:23:57.201Z,4.10
2018-12-31T09:24:57.174Z,3.90
2018-12-31T09:25:57.180Z,4.00
2018-12-31T09:26:57.150Z,4.00
2018-12-31T09:27:57.139Z,3.90
2018-12-31T09:28:57.154Z,4.10
2018-12-31T09:29:57.117Z,4.30
2018-12-31T09:30:57.105Z,4.20
2018-12-31T09:31:57.144Z,4.30
2018-12-31T09:32:57.094Z,4.70
2018-12-31T09:33:57.134Z,4.10
2018-12-31T09:34:57.083Z,3.80
2018-12-31T09:35:57.062Z,3.70
2018-12-31T09:36:57.043Z,4.10
2018-12-31T09:37:57.032Z,3.90
2018-12-31T09:38:57.023Z,3.70
2018-12-31T09:39:57.941Z,3.70
2018-12-31T09:40:57.002Z,3.70
2018-12-31T09:41:56.990Z,3.80
2018-12-31T09:42:56.980Z,3.90
2018-12-31T09:43:56.966Z,3.70
2018-12-31T09:44:56.981Z,3.70
2018-12-31T09:45:56.965Z,3.60
2018-12-31T09:46:56.935Z,3.70
2018-12-31T09:47:56.927Z,3.40
2018-12-31T09:48:56.919Z,4.00
2018-12-31T09:49:56.921Z,3.90
2018-12-31T09:50:56.894Z,3.90
2018-12-31T09:51:56.882Z,3.90
2018-12-31T09:52:56.878Z,3.70
2018-12-31T09:53:56.861Z,3.80
2018-12-31T09:54:56.869Z,3.90
2018-12-31T09:55:56.847Z,3.90
2018-12-31T09:56:56.830Z,3.90
2018-12-31T09:57:56.823Z,3.70
2018-12-31T09:58:56.809Z,3.40
2018-12-31T09:59:56.819Z,3.90
2018-12-31T10:00:56.786Z,3.80
2018-12-31T10:01:56.781Z,3.70
2018-12-31T10:02:56.768Z,3.70
2018-12-31T10:03:56.754Z,3.80
2018-12-31T10:04:56.747Z,3.70
2018-12-31T10:05:56.754Z,3.70
2018-12-31T10:06:56.722Z,4.10
2018-12-31T10:07:56.713Z,3.70
2018-12-31T10:08:56.701Z,3.90
2018-12-31T10:09:56.694Z,3.60
2018-12-31T10:10:56.704Z,3.90
2018-12-31T10:11:56.673Z,4.10
2018-12-31T10:12:56.662Z,4.10
2018-12-31T10:13:56.648Z,3.70
2018-12-31T10:14:56.639Z,3.90
2018-12-31T10:15:56.630Z,3.80
2018-12-31T10:16:56.636Z,4.20
2018-12-31T10:17:56.606Z,4.00
2018-12-31T10:18:56.598Z,3.90
2018-12-31T10:19:56.585Z,4.00
2018-12-31T10:20:56.575Z,4.20
2018-12-31T10:21:56.581Z,4.50
2018-12-31T10:22:56.552Z,4.70
2018-12-31T10:23:56.543Z,4.10
2018-12-31T10:24:56.531Z,4.10
2018-12-31T10:25:56.536Z,3.90
2018-12-31T10:26:56.528Z,4.30
2018-12-31T10:27:56.498Z,4.60
2018-12-31T10:28:56.490Z,4.60
2018-12-31T10:29:56.477Z,4.30
2018-12-31T10:30:56.470Z,4.60
2018-12-31T10:31:56.483Z,4.30
2018-12-31T10:32:56.521Z,4.60
2018-12-31T10:33:56.440Z,4.70
2018-12-31T10:34:58.625Z,4.40
2018-12-31T10:35:56.416Z,4.60
2018-12-31T10:36:56.425Z,4.10
2018-12-31T10:37:56.397Z,4.50
2018-12-31T10:38:56.383Z,4.50
2018-12-31T10:39:56.588Z,4.10
2018-12-31T10:40:56.507Z,4.40
2018-12-31T10:41:56.428Z,4.50
2018-12-31T10:42:56.358Z,4.20
2018-12-31T10:43:56.337Z,4.20
2018-12-31T10:44:56.317Z,4.20
2018-12-31T10:45:56.307Z,4.60
2018-12-31T10:46:56.351Z,4.60
2018-12-31T10:47:56.286Z,4.40
2018-12-31T10:48:56.276Z,4.50
2018-12-31T10:49:56.266Z,4.40
2018-12-31T10:50:56.273Z,4.40
2018-12-31T10:51:56.265Z,4.10
2018-12-31T10:52:56.233Z,4.50
2018-12-31T10:53:56.557Z,4.10
2018-12-31T10:54:56.228Z,4.30
2018-12-31T10:55:56.216Z,4.10
2018-12-31T10:56:56.232Z,4.40
2018-12-31T10:57:56.181Z,4.10
2018-12-31T10:58:56.174Z,4.10
2018-12-31T10:59:56.160Z,4.50
2018-12-31T11:00:56.147Z,4.30
2018-12-31T11:01:56.143Z,4.50
2018-12-31T11:02:56.218Z,4.70
2018-12-31T11:03:56.118Z,4.40
2018-12-31T11:04:56.106Z,4.10
2018-12-31T11:05:56.095Z,4.20
2018-12-31T11:06:56.086Z,4.60
2018-12-31T11:07:56.093Z,4.60
2018-12-31T11:08:56.065Z,4.00
2018-12-31T11:09:56.070Z,4.30
2018-12-31T11:10:56.042Z,4.20
2018-12-31T11:11:56.029Z,4.70
2018-12-31T11:12:56.037Z,4.50
2018-12-31T11:13:56.013Z,4.40
2018-12-31T11:14:56.001Z,4.40
2018-12-31T11:15:55.995Z,4.40
2018-12-31T11:16:55.977Z,4.70
2018-12-31T11:17:56.732Z,4.50
2018-12-31T11:18:55.960Z,4.60
2018-12-31T11:19:55.946Z,4.70
2018-12-31T11:20:56.172Z,4.60
2018-12-31T11:21:56.163Z,4.60
2018-12-31T11:22:56.125Z,5.10
2018-12-31T11:23:55.952Z,5.10
2018-12-31T11:24:55.920Z,5.40
2018-12-31T11:25:55.888Z,5.10
2018-12-31T11:26:55.872Z,4.90
2018-12-31T11:27:55.897Z,4.90
2018-12-31T11:28:55.853Z,5.20
2018-12-31T11:29:55.840Z,5.60
2018-12-31T11:30:55.832Z,5.00
2018-12-31T11:31:55.894Z,5.50
2018-12-31T11:32:55.827Z,5.00
2018-12-31T11:33:55.797Z,5.10
2018-12-31T11:34:55.787Z,5.20
2018-12-31T11:35:55.776Z,5.20
2018-12-31T11:36:55.768Z,5.10
2018-12-31T11:37:55.775Z,5.30
2018-12-31T11:38:55.752Z,4.80
2018-12-31T11:39:55.741Z,5.00
2018-12-31T11:40:55.754Z,4.90
2018-12-31T11:41:55.719Z,4.80
2018-12-31T11:42:55.720Z,5.00
2018-12-31T11:43:55.691Z,4.60
2018-12-31T11:44:55.681Z,4.70
2018-12-31T11:45:55.681Z,4.90
2018-12-31T11:46:55.697Z,5.00
2018-12-31T11:47:55.647Z,4.90
2018-12-31T11:48:55.657Z,4.80
2018-12-31T11:49:55.635Z,5.30
2018-12-31T11:50:55.615Z,5.00
2018-12-31T11:51:55.611Z,5.20
2018-12-31T11:52:55.627Z,4.90
2018-12-31T11:53:55.592Z,4.90
2018-12-31T11:54:55.580Z,4.80
2018-12-31T11:55:55.596Z,5.10
2018-12-31T11:56:55.560Z,4.40
2018-12-31T11:57:55.562Z,4.60
2018-12-31T11:58:55.535Z,4.40
2018-12-31T11:59:55.521Z,4.50
2018-12-31T12:00:55.513Z,4.80
2018-12-31T12:01:55.745Z,4.80
2018-12-31T12:02:55.907Z,4.70
2018-12-31T12:03:55.479Z,5.20
2018-12-31T12:04:55.719Z,4.60
2018-12-31T12:05:55.456Z,5.00
2018-12-31T12:06:55.449Z,4.40
2018-12-31T12:07:55.457Z,4.20
2018-12-31T12:08:55.429Z,4.50
2018-12-31T12:09:55.413Z,4.60
2018-12-31T12:10:55.411Z,4.70
2018-12-31T12:11:55.394Z,4.50
2018-12-31T12:12:55.387Z,4.40
2018-12-31T12:13:55.388Z,4.60
2018-12-31T12:14:55.362Z,4.80
2018-12-31T12:15:55.363Z,4.70
2018-12-31T12:16:55.343Z,4.40
2018-12-31T12:17:55.359Z,4.40
2018-12-31T12:18:55.343Z,4.50
2018-12-31T12:19:55.320Z,4.60
2018-12-31T12:20:55.301Z,4.70
2018-12-31T12:21:55.287Z,4.50
2018-12-31T12:22:55.287Z,4.70
2018-12-31T12:23:55.456Z,4.60
2018-12-31T12:24:55.257Z,4.90
2018-12-31T12:25:55.265Z,4.70
2018-12-31T12:26:55.237Z,4.30
2018-12-31T12:27:55.487Z,4.70
2018-12-31T12:28:55.617Z,4.90
2018-12-31T12:29:55.202Z,4.60
2018-12-31T12:30:55.200Z,4.30
2018-12-31T12:31:55.182Z,4.60
2018-12-31T12:32:55.171Z,4.90
2018-12-31T12:33:55.163Z,4.80
2018-12-31T12:34:55.171Z,4.90
2018-12-31T12:35:55.264Z,4.50
2018-12-31T12:36:55.126Z,4.90
2018-12-31T12:37:55.117Z,5.10
2018-12-31T12:38:56.123Z,4.20
2018-12-31T12:39:55.122Z,4.70
2018-12-31T12:40:55.090Z,4.60
2018-12-31T12:41:55.075Z,4.80
2018-12-31T12:42:55.112Z,4.80
2018-12-31T12:43:55.055Z,5.00
2018-12-31T12:44:55.075Z,4.70
2018-12-31T12:45:55.031Z,4.80
2018-12-31T12:46:55.023Z,4.90
2018-12-31T12:48:02.041Z,4.60
2018-12-31T12:48:55.000Z,4.60
2018-12-31T12:49:55.008Z,5.00
2018-12-31T12:50:54.978Z,6.00
2018-12-31T12:51:54.968Z,7.50
2018-12-31T12:52:54.964Z,6.40
2018-12-31T12:53:54.946Z,6.70
2018-12-31T12:54:54.954Z,5.70
2018-12-31T12:55:54.925Z,5.70
2018-12-31T12:56:54.916Z,6.10
2018-12-31T12:57:54.904Z,6.80
2018-12-31T12:58:54.895Z,6.90
2018-12-31T12:59:54.902Z,6.30
2018-12-31T13:00:54.879Z,6.80
2018-12-31T13:01:54.864Z,6.50
2018-12-31T13:02:54.850Z,6.20
2018-12-31T13:03:54.844Z,6.40
2018-12-31T13:04:54.854Z,6.30
2018-12-31T13:05:54.818Z,6.40
2018-12-31T13:06:54.809Z,6.60
2018-12-31T13:07:54.800Z,6.20
2018-12-31T13:08:54.794Z,6.40
2018-12-31T13:09:54.890Z,6.70
2018-12-31T13:10:54.784Z,6.20
2018-12-31T13:11:54.755Z,6.20
2018-12-31T13:12:54.747Z,6.60
2018-12-31T13:13:54.735Z,6.20
2018-12-31T13:14:54.726Z,6.20
2018-12-31T13:15:54.731Z,5.80
2018-12-31T13:16:54.869Z,5.70
2018-12-31T13:17:55.204Z,5.90